MET6062 - Edinburgh to London Heathrow

Boeing 737-800
G-FLII - Fly UK
1 hr 00 mins
288 nm
Fly UK Codeshare - Daily

Departure

Departing from
Edinburgh (EDI)
Departure gate
1
Scheduled Departure
GMT 1125
Local 1125
METAR EGPH 191820Z 25012KT 9999 BKN012 10/09 Q1014
TAF TAF EGPH 191658Z 1918/2018 24015KT 9999 BKN012 TEMPO 2000/2018 25018G28KT 6000 -RA PROB30 TEMPO 2006/2012 4000 RA BKN006 BECMG 2015/2018 SCT025
  • No charts available

Arrival

Arriving at
London Heathrow (LHR)
Arrival gate
Terminal 3
Scheduled Arrival
GMT 1225
Local 1225
METAR EGLL 191820Z AUTO 25009KT 9999 OVC017 11/08 Q1022 BECMG BKN012
TAF TAF EGLL 191659Z 1918/2024 25008KT 9999 BKN018 BECMG 1918/1921 BKN005 TEMPO 1918/2012 6000 PROB30 TEMPO 1921/2009 2000 -DZ BR BKN002 BECMG 2009/2012 BKN018 BECMG 2018/2021 BKN010 PROB40 TEMPO 2021/2024 5000 -RADZ BKN006

Route Map

Planning Resources

TLA6C DCS LAKEY NUGRA BNN LLE25 LLE09
DCS UN615 LAKEY DCT NUGRA
TLA UN864 DCS UL612 HON BOVVA
TLA UN864 DCS HON
DCT TLA DCT HON DCT TOBID DCT SOPIT DCT BNN DCT
Route:
OFP Layout:
Units:
Detailed Navlog:
ETOPS Planning:
Plan Stepclimbs:
Runway Analysis:
Include NOTAMS:
FIR NOTAMS:
Flight Maps:

Return Flights

MET6061 (Operated by Fly UK)
Boeing 737-800
0955 GMT

Popularity

Hub Current Bids PiReps this month Total PiReps
KMCI 0 0 13
KLAX 0 0 6
KBOS 0 0 0